Zagreb Pleso, Croatia

6:52 PM CEST on August 20, 2014 (GMT +0200)
Zagreb, Dugave | Change Station
CLOSE
Current Station
Personal Weather Station
Location: Zagreb, GRAD ZAGREB
Elevation: 377 ft
Nearby Weather Stations

Elev 377 ft 45.76 °N, 15.99 °E | Updated 6 seconds ago

Partly Cloudy
Partly Cloudy
71.9 °F
Feels Like 74 °F
N
0.0
Wind Variable Wind from North
Gusts 0.0 mph

Today
High -- | Low -- °F
--% Chance of Precip.
Yesterday
High -- | Low -- °F
Precip. -- in
6:01 AM 7:55 PM
Waning Crescent, 20% visible
Pressure 29.92 in
Visibility 6.2 miles
Clouds Few 3500 ft
Heat Index 74 °F
Dew Point 62 °F
Humidity 72%
Rainfall 0.00 in
Snow Depth Not available.
UV 1 out of 12
Pollen Not available.
Air Quality Not available.
Flu Activity Not available.
METAR LDZA 201630Z 04010KT 010V070 9999 FEW035 22/18 Q1013 NOSIG

More Conditions Fewer Conditions

Pressure 29.92 in
Visibility 6.2 miles
Clouds Few 3500 ft
Heat Index 74 °F
Dew Point 62 °F
Humidity 72%
Rainfall 0.00 in
Snow Depth Not available.
UV 1 out of 12
Pollen Not available.
Air Quality Not available.
Flu Activity Not available.
METAR LDZA 201630Z 04010KT 010V070 9999 FEW035 22/18 Q1013 NOSIG

More Conditions Fewer Conditions

10-Day Weather Forecast

Almanac

Astronomy

Aug. 20, 2014 Rise Set
Actual Time 6:01 AM CEST 7:55 PM CEST
Civil Twilight 5:29 AM CEST 8:27 PM CEST
Nautical Twilight 4:50 AM CEST 9:06 PM CEST
Astronomical Twilight 4:07 AM CEST 9:49 PM CEST
Moon 1:21 AM CEST 4:32 PM CEST
Length of Visible Light 14h 57m
Length of Day
13h 54m
Tomorrow will be 2m 57s shorter.
Waning Crescent, 20% of the Moon is Illuminated
Today
Waning Crescent
Aug 25
New
Sep 2
First Quarter
Sep 8
Full
Sep 15
Last Quarter

Today's Extremes

Country Highs Country Lows

Community

WunderPhotos

Upload Photos

1,745,691 photos uploaded!

WunderBlogs® & News

Nearby

Snow Depth

Not available.

Earthquake Activity

City Distance Mag. Time & Date
No recent earthquake activity has been reported nearby.
Minimum magnitude displayed is 2.5.

Coastal Water Temperatures

Place Temperature
No Stations Reporting

Nearby Weather Stations